Time;durP1;ratioP1;P1;durP2;ratioP2;P2;SDS_P1;SDS_P2;PMS_P1;PMS_P2;Temp;Humidity;BMP_temperature;BMP_pressure;BME280_temperature;BME280_humidity;BME280_pressure;Samples;Min_cycle;Max_cycle;Signal;HPM_P1;HPM_P2
2021/11/27 00:02:20;;;;;;;9.75;1.73;;;;;;;3.48;96.94;98453.50;10569646;28;20486;-74
2021/11/27 00:07:20;;;;;;;11.07;2.35;;;;;;;3.57;96.94;98447.91;10568677;28;20032;-73
2021/11/27 00:12:20;;;;;;;20.00;2.78;;;;;;;3.64;96.49;98446.03;10586599;28;20027;-73
2021/11/27 00:17:22;;;;;;;2.67;2.30;;;;;;;3.60;96.44;98445.63;10587746;28;20043;-73
2021/11/27 00:22:22;;;;;;;4.45;2.05;;;;;;;3.60;96.40;98439.47;10587343;28;20045;-73
2021/11/27 00:27:22;;;;;;;5.07;2.30;;;;;;;3.55;96.31;98439.28;10586220;28;20135;-74
2021/11/27 00:32:23;;;;;;;3.95;1.73;;;;;;;3.58;96.21;98441.53;10567287;28;20408;-73
2021/11/27 00:37:23;;;;;;;6.88;2.42;;;;;;;3.59;96.30;98437.81;10585127;28;20134;-73
2021/11/27 00:42:24;;;;;;;4.65;1.50;;;;;;;3.59;96.26;98435.97;10550701;28;20052;-73
2021/11/27 00:47:25;;;;;;;1.17;1.17;;;;;;;3.60;96.41;98434.91;10567720;28;20050;-73
2021/11/27 00:52:25;;;;;;;2.63;1.75;;;;;;;3.63;96.32;98431.81;10585214;28;20067;-72
2021/11/27 00:57:25;;;;;;;3.80;1.80;;;;;;;3.56;96.84;98422.19;10584438;28;20085;-72
2021/11/27 01:02:26;;;;;;;2.05;1.90;;;;;;;3.57;96.62;98427.31;10585360;28;20031;-72
2021/11/27 01:07:26;;;;;;;5.75;1.90;;;;;;;3.58;96.65;98433.50;10566948;28;20466;-72
2021/11/27 01:12:26;;;;;;;4.43;2.20;;;;;;;3.56;96.29;98440.91;10566118;28;20119;-73
2021/11/27 01:17:27;;;;;;;2.78;2.20;;;;;;;3.55;95.87;98436.63;10566094;28;20028;-74
2021/11/27 01:22:27;;;;;;;3.42;2.85;;;;;;;3.52;95.64;98432.50;10584524;28;20455;-74
2021/11/27 01:27:28;;;;;;;5.30;2.65;;;;;;;3.49;95.69;98439.09;10583248;28;20036;-73
2021/11/27 01:32:28;;;;;;;3.60;2.08;;;;;;;3.48;95.46;98450.84;10582976;28;20470;-73
2021/11/27 01:37:28;;;;;;;9.00;2.92;;;;;;;3.44;95.50;98446.91;10565086;28;20039;-74
2021/11/27 01:42:29;;;;;;;3.78;3.42;;;;;;;3.47;95.37;98456.38;10584002;28;20055;-73
2021/11/27 01:47:29;;;;;;;2.88;2.63;;;;;;;3.42;95.28;98462.38;10583099;28;20416;-73
2021/11/27 01:52:30;;;;;;;10.57;2.70;;;;;;;3.37;95.25;98467.53;10583194;28;20172;-72
2021/11/27 01:57:30;;;;;;;5.45;2.63;;;;;;;3.32;95.61;98474.53;10582074;28;20039;-73
2021/11/27 02:02:31;;;;;;;10.88;2.22;;;;;;;3.39;96.39;98489.56;10582520;28;20032;-72
2021/11/27 02:07:31;;;;;;;2.35;2.10;;;;;;;3.42;96.58;98486.47;10582277;28;20028;-72
2021/11/27 02:12:31;;;;;;;9.70;2.72;;;;;;;3.46;96.71;98490.34;10582554;28;20073;-73
2021/11/27 02:17:32;;;;;;;5.88;2.25;;;;;;;3.40;96.59;98493.88;10564898;28;20039;-73
2021/11/27 02:22:34;;;;;;;1.90;1.80;;;;;;;3.36;96.00;98489.97;10565081;28;20101;-74
2021/11/27 02:27:34;;;;;;;3.30;1.65;;;;;;;3.31;96.20;98483.59;10563410;28;20028;-73
2021/11/27 02:32:35;;;;;;;5.68;1.80;;;;;;;3.29;95.89;98477.63;10581129;28;20032;-72
2021/11/27 02:37:36;;;;;;;2.25;2.05;;;;;;;3.25;95.96;98475.41;10582057;28;20347;-72
2021/11/27 02:42:36;;;;;;;2.63;1.77;;;;;;;3.16;95.49;98484.69;10563192;28;20109;-72
2021/11/27 02:47:37;;;;;;;5.82;2.20;;;;;;;3.11;95.33;98478.31;10581844;28;20475;-73
2021/11/27 02:52:37;;;;;;;2.47;2.30;;;;;;;3.10;95.73;98485.50;10581765;28;20035;-73
2021/11/27 02:57:37;;;;;;;4.25;3.20;;;;;;;3.10;95.61;98482.03;10571194;28;20411;-72
2021/11/27 03:02:38;;;;;;;7.65;3.47;;;;;;;3.03;95.88;98482.00;10589365;28;20031;-72
2021/11/27 03:07:38;;;;;;;7.78;3.72;;;;;;;3.00;95.63;98493.97;10570398;28;20039;-73
2021/11/27 03:12:39;;;;;;;5.32;3.50;;;;;;;3.02;95.15;98486.53;10571707;28;20038;-72
2021/11/27 03:17:39;;;;;;;3.45;3.22;;;;;;;2.97;94.54;98490.88;10588812;28;20055;-73
2021/11/27 03:22:40;;;;;;;9.07;3.90;;;;;;;2.91;95.02;98492.53;10588061;28;20062;-72
2021/11/27 03:27:41;;;;;;;9.27;3.65;;;;;;;2.94;95.11;98502.81;10569616;28;20172;-73
2021/11/27 03:32:41;;;;;;;4.30;3.40;;;;;;;2.90;95.18;98492.72;10570167;28;20027;-72
2021/11/27 03:37:42;;;;;;;4.57;3.42;;;;;;;2.88;95.30;98492.13;10570242;28;20038;-72
2021/11/27 03:42:42;;;;;;;5.28;3.05;;;;;;;2.88;95.10;98500.97;10587683;28;20058;-73
2021/11/27 03:47:59;;;;;;;6.85;3.17;;;;;;;2.87;95.34;98514.53;10568698;28;20096;-72
2021/11/27 03:53:00;;;;;;;;;;;;;;;2.82;94.97;98517.81;10587574;28;20027;-72
2021/11/27 03:58:00;;;;;;;5.07;3.97;;;;;;;2.77;95.04;98518.44;10587533;28;20283;-72
2021/11/27 04:03:01;;;;;;;4.28;3.90;;;;;;;2.78;95.09;98536.13;10586367;28;20122;-72
2021/11/27 04:08:01;;;;;;;7.55;4.78;;;;;;;2.77;95.04;98537.13;10568397;28;20116;-73
2021/11/27 04:13:01;;;;;;;4.65;3.40;;;;;;;2.79;95.12;98536.94;10586407;28;20036;-73
2021/11/27 04:18:02;;;;;;;5.53;4.47;;;;;;;2.80;95.26;98546.59;10585812;28;20035;-72
2021/11/27 04:23:03;;;;;;;4.25;3.92;;;;;;;2.76;95.02;98550.72;10586881;28;20100;-72
2021/11/27 04:28:04;;;;;;;6.18;5.57;;;;;;;2.75;94.75;98555.25;10567539;28;20462;-72
2021/11/27 04:33:05;;;;;;;6.65;5.93;;;;;;;2.76;95.19;98559.56;10587006;28;20038;-74
2021/11/27 04:38:06;;;;;;;6.00;4.63;;;;;;;2.75;94.87;98562.44;10585885;28;20039;-72
2021/11/27 04:43:06;;;;;;;7.28;6.57;;;;;;;2.77;95.16;98576.41;10585133;28;20048;-73
2021/11/27 04:48:07;;;;;;;13.00;7.70;;;;;;;2.78;95.30;98580.75;10584788;28;20046;-72
2021/11/27 04:53:07;;;;;;;10.80;7.32;;;;;;;2.77;95.10;98585.25;10567972;28;20028;-72
2021/11/27 04:58:08;;;;;;;11.77;7.28;;;;;;;2.71;94.84;98590.56;10584355;28;20180;-74
2021/11/27 05:03:08;;;;;;;12.43;7.88;;;;;;;2.74;95.01;98603.53;10584731;28;20035;-74
2021/11/27 05:08:09;;;;;;;11.10;8.18;;;;;;;2.76;95.28;98604.16;10566757;28;20051;-74
2021/11/27 05:13:09;;;;;;;12.77;8.30;;;;;;;2.77;95.62;98616.50;10565929;28;20028;-72
2021/11/27 05:18:09;;;;;;;10.60;7.80;;;;;;;2.77;95.08;98616.50;10565230;28;20059;-73
2021/11/27 05:23:10;;;;;;;8.52;7.65;;;;;;;2.78;95.17;98612.81;10583957;28;20023;-73
2021/11/27 05:28:10;;;;;;;9.38;8.20;;;;;;;2.79;95.46;98617.94;10583548;28;20054;-71
2021/11/27 05:33:13;;;;;;;8.60;7.70;;;;;;;2.78;95.22;98624.31;10583941;28;20332;-72
2021/11/27 05:38:13;;;;;;;11.73;9.77;;;;;;;2.80;95.67;98640.13;10549197;28;20035;-73
2021/11/27 05:43:14;;;;;;;10.70;9.43;;;;;;;2.82;95.81;98647.97;10531024;28;20044;-71
2021/11/27 05:48:14;;;;;;;12.10;10.07;;;;;;;2.76;95.46;98652.28;10564630;28;20035;-73
2021/11/27 05:53:18;;;;;;;17.00;9.98;;;;;;;2.85;95.79;98666.28;10565004;28;20034;-72
2021/11/27 05:58:18;;;;;;;16.48;11.43;;;;;;;2.84;95.72;98673.47;10582520;28;20067;-73
2021/11/27 06:03:19;;;;;;;12.00;9.90;;;;;;;2.85;96.07;98683.13;10581785;28;20069;-76
2021/11/27 06:08:20;;;;;;;13.60;10.90;;;;;;;2.88;95.82;98688.06;10564171;28;20047;-73
2021/11/27 06:13:20;;;;;;;20.20;11.52;;;;;;;2.86;95.60;98708.81;10581991;28;20028;-74
2021/11/27 06:18:20;;;;;;;19.67;13.88;;;;;;;2.89;95.75;98705.75;10546922;28;20036;-73
2021/11/27 06:23:21;;;;;;;21.58;15.00;;;;;;;2.91;95.96;98718.94;10563608;28;20042;-72
2021/11/27 06:28:22;;;;;;;18.67;13.63;;;;;;;2.90;95.57;98714.59;10546384;28;20040;-74
2021/11/27 06:33:22;;;;;;;24.67;15.18;;;;;;;2.92;95.80;98724.06;10563149;28;20056;-73
2021/11/27 06:38:22;;;;;;;23.92;15.20;;;;;;;2.93;95.65;98733.72;10562706;28;20122;-73
2021/11/27 06:43:23;;;;;;;24.92;16.13;;;;;;;2.94;95.69;98742.59;10537944;28;20636;-73
2021/11/27 06:48:24;;;;;;;34.38;16.77;;;;;;;2.95;96.17;98752.25;10539024;28;20052;-72
2021/11/27 06:53:24;;;;;;;26.27;17.58;;;;;;;2.95;95.38;98762.94;10539668;28;20063;-73
2021/11/27 06:58:25;;;;;;;22.88;17.38;;;;;;;2.96;95.53;98776.09;10540852;28;20036;-73
2021/11/27 07:03:25;;;;;;;29.50;19.60;;;;;;;2.98;95.93;98779.41;10539067;28;20039;-73
2021/11/27 07:08:26;;;;;;;23.90;17.65;;;;;;;2.99;95.86;98791.75;10538801;28;20036;-73
2021/11/27 07:13:26;;;;;;;31.88;19.77;;;;;;;2.97;95.61;98796.47;10539823;28;20028;-73
2021/11/27 07:18:26;;;;;;;34.15;22.75;;;;;;;3.00;95.61;98803.28;10538709;28;20040;-74
2021/11/27 07:23:27;;;;;;;43.15;23.42;;;;;;;3.03;95.74;98803.69;10537454;28;20340;-73
2021/11/27 07:28:27;;;;;;;43.55;23.17;;;;;;;3.10;95.65;98808.25;10538332;28;20062;-73
2021/11/27 07:33:28;;;;;;;39.78;24.80;;;;;;;3.16;95.95;98816.28;10537821;28;20082;-73
2021/11/27 07:38:28;;;;;;;41.83;23.38;;;;;;;3.23;96.21;98827.00;10538249;28;20116;-74
2021/11/27 07:43:29;;;;;;;35.95;23.52;;;;;;;3.30;96.05;98840.41;10527499;28;20138;-73
2021/11/27 07:48:33;;;;;;;49.03;24.95;;;;;;;3.38;96.28;98854.44;10545574;28;20046;-72
2021/11/27 07:53:33;;;;;;;29.80;21.48;;;;;;;3.57;96.61;98862.69;10545228;28;20039;-73
2021/11/27 07:58:34;;;;;;;38.45;25.73;;;;;;;3.65;96.62;98870.53;10543842;28;20051;-74
2021/11/27 08:03:34;;;;;;;35.67;20.98;;;;;;;3.65;96.42;98882.06;10544809;28;20471;-73
2021/11/27 08:08:35;;;;;;;33.05;22.95;;;;;;;3.65;96.33;98894.63;10545999;28;20043;-73
2021/11/27 08:13:37;;;;;;;26.75;22.05;;;;;;;3.63;96.36;98897.50;10544922;28;20028;-73
2021/11/27 08:18:37;;;;;;;38.58;21.05;;;;;;;3.66;96.52;98915.00;10542427;28;20039;-73
2021/11/27 08:23:38;;;;;;;38.72;24.17;;;;;;;3.70;96.53;98916.25;10543570;28;20095;-73
2021/11/27 08:28:38;;;;;;;46.03;23.45;;;;;;;3.77;96.67;98910.94;10544329;28;20036;-75
2021/11/27 08:33:38;;;;;;;34.92;22.55;;;;;;;3.75;96.81;98929.03;10543818;28;20028;-73
2021/11/27 08:38:39;;;;;;;41.97;21.67;;;;;;;3.67;96.93;98925.53;10545821;28;20064;-77
2021/11/27 08:43:39;;;;;;;39.88;23.30;;;;;;;3.60;96.80;98929.19;10594494;28;20060;-77
2021/11/27 08:48:40;;;;;;;34.88;20.40;;;;;;;3.67;96.74;98938.06;10574419;28;20359;-72
2021/11/27 08:53:42;;;;;;;37.05;21.92;;;;;;;3.67;96.96;98948.78;10566948;28;20038;-74
2021/11/27 08:58:42;;;;;;;30.65;21.20;;;;;;;3.64;96.79;98959.91;10585053;28;20031;-75
2021/11/27 09:03:43;;;;;;;30.63;21.20;;;;;;;3.76;97.00;98962.81;10566807;28;20363;-75
2021/11/27 09:08:43;;;;;;;33.83;20.38;;;;;;;3.84;96.88;98974.19;10552017;28;20046;-74
2021/11/27 09:13:44;;;;;;;37.10;20.08;;;;;;;3.81;97.00;98977.25;10567667;28;20020;-75
2021/11/27 09:18:44;;;;;;;37.22;22.10;;;;;;;3.79;96.76;98973.94;10570322;28;20028;-75
2021/11/27 09:23:45;;;;;;;30.17;20.92;;;;;;;3.68;97.09;98983.38;10567817;28;20031;-77
2021/11/27 09:28:45;;;;;;;25.95;18.15;;;;;;;3.76;97.44;98982.38;10584419;28;20041;-76
2021/11/27 09:33:46;;;;;;;39.08;24.40;;;;;;;3.87;97.25;98992.50;10582971;28;20036;-73
2021/11/27 09:38:48;;;;;;;32.67;19.77;;;;;;;3.92;97.44;98998.09;10583580;28;20067;-74
2021/11/27 09:43:50;;;;;;;30.52;18.98;;;;;;;3.86;97.51;98996.22;10564396;28;20056;-74
2021/11/27 09:48:53;;;;;;;40.40;21.38;;;;;;;3.93;97.58;98991.72;10566097;28;20375;-74
2021/11/27 09:53:54;;;;;;;44.72;21.52;;;;;;;4.04;97.34;98995.66;10583155;28;20023;-74
2021/11/27 09:58:54;;;;;;;37.72;20.40;;;;;;;4.18;97.78;99002.69;10582573;28;20498;-75
2021/11/27 10:04:06;;;;;;;35.35;18.13;;;;;;;4.29;97.70;98995.91;10563474;28;20089;-73
2021/11/27 10:09:20;;;;;;;33.65;17.95;;;;;;;4.42;97.68;98998.59;10565832;28;20038;-75
2021/11/27 10:14:20;;;;;;;26.58;16.58;;;;;;;4.54;98.01;98995.34;10548813;28;20024;-73
2021/11/27 10:19:21;;;;;;;27.92;14.20;;;;;;;4.56;98.13;98986.06;10568250;28;20031;-74
2021/11/27 10:24:23;;;;;;;22.13;13.20;;;;;;;4.75;97.98;98989.75;10548182;28;20039;-75
2021/11/27 10:29:32;;;;;;;26.00;12.55;;;;;;;5.07;98.12;98984.56;10529648;28;20031;-75
2021/11/27 10:34:33;;;;;;;22.38;10.20;;;;;;;5.42;98.18;98981.59;10564766;28;20114;-75
2021/11/27 10:39:33;;;;;;;19.83;7.38;;;;;;;5.34;98.12;98993.41;10580822;28;20180;-75
2021/11/27 10:44:36;;;;;;;21.33;5.43;;;;;;;4.89;97.03;98986.03;10582368;28;20067;-75
2021/11/27 10:49:36;;;;;;;14.10;4.00;;;;;;;4.57;96.78;98985.03;10566174;28;20039;-74
2021/11/27 10:54:56;;;;;;;8.73;4.50;;;;;;;4.39;96.92;98990.16;10547388;28;20024;-75
2021/11/27 10:59:58;;;;;;;8.68;3.83;;;;;;;4.21;96.98;98993.41;10563104;28;20032;-74
2021/11/27 11:05:11;;;;;;;7.50;3.95;;;;;;;4.01;96.29;98992.56;10581141;28;20051;-75
2021/11/27 11:10:19;;;;;;;7.50;3.58;;;;;;;3.84;96.64;98990.25;10561957;28;20034;-78
2021/11/27 11:15:22;;;;;;;9.95;3.67;;;;;;;3.53;96.84;98995.25;10583424;28;20408;-75
2021/11/27 11:20:27;;;;;;;7.90;2.78;;;;;;;3.40;97.38;98996.84;10571629;28;20064;-80
2021/11/27 11:25:28;;;;;;;14.52;2.97;;;;;;;3.35;97.67;98985.91;10562340;28;20449;-78
2021/11/27 11:30:36;;;;;;;4.90;3.08;;;;;;;3.41;98.15;98986.94;10615190;28;20032;-79
2021/11/27 11:35:37;;;;;;;8.48;3.63;;;;;;;3.32;97.80;98978.28;10563688;28;20536;-80
2021/11/27 11:40:41;;;;;;;6.43;4.22;;;;;;;3.38;98.16;98980.19;10589870;28;20142;-78
2021/11/27 11:45:41;;;;;;;11.20;4.00;;;;;;;3.47;98.49;98978.97;10588213;28;20364;-80
2021/11/27 11:50:42;;;;;;;4.78;3.75;;;;;;;3.54;98.70;98975.50;10570868;28;20035;-75
2021/11/27 11:56:00;;;;;;;32.42;4.53;;;;;;;3.65;98.58;98983.78;10589793;28;20050;-76
2021/11/27 12:01:06;;;;;;;3.40;2.38;;;;;;;3.56;98.12;98978.81;10569979;28;20148;-77
2021/11/27 12:06:08;;;;;;;19.17;4.97;;;;;;;3.65;98.51;98981.09;10447625;28;20043;-77
2021/11/27 12:11:09;;;;;;;6.78;4.15;;;;;;;3.72;98.65;98978.44;10569240;28;20026;-75
2021/11/27 12:16:10;;;;;;;13.25;4.97;;;;;;;3.62;99.02;98969.97;10568352;28;20019;-75
2021/11/27 12:21:13;;;;;;;10.38;4.50;;;;;;;3.66;98.75;98963.19;10585771;28;20043;-76
2021/11/27 12:26:15;;;;;;;15.00;4.63;;;;;;;3.56;98.59;98979.63;10587238;28;20043;-77
2021/11/27 12:31:22;;;;;;;15.93;4.82;;;;;;;3.66;98.62;98980.06;10567559;28;20032;-76
2021/11/27 12:36:29;;;;;;;14.40;5.95;;;;;;;3.64;98.31;98992.84;10586922;28;20049;-76
2021/11/27 12:41:35;;;;;;;7.13;4.15;;;;;;;3.50;98.46;98986.59;10567215;28;20230;-75
2021/11/27 12:46:35;;;;;;;9.57;4.10;;;;;;;3.44;98.73;98983.88;10586000;28;20036;-77
2021/11/27 12:51:36;;;;;;;7.38;3.47;;;;;;;3.31;98.67;99005.22;10583718;28;20024;-77
2021/11/27 12:56:48;;;;;;;2.58;2.10;;;;;;;3.19;98.71;99000.44;10566614;28;20044;-75
2021/11/27 13:01:53;;;;;;;3.13;2.38;;;;;;;3.25;98.65;99006.84;10584632;28;20023;-76
2021/11/27 13:06:53;;;;;;;6.10;2.25;;;;;;;3.03;98.91;99006.06;10509620;28;20060;-77
2021/11/27 13:11:58;;;;;;;8.52;2.67;;;;;;;3.01;98.69;99008.94;10554273;28;20043;-78
2021/11/27 13:17:04;;;;;;;5.43;3.05;;;;;;;2.97;99.06;99004.19;10590097;28;20046;-75
2021/11/27 13:22:15;;;;;;;2.72;2.53;;;;;;;2.86;98.82;99002.88;10566536;28;20063;-77
2021/11/27 13:27:23;;;;;;;8.35;2.53;;;;;;;2.88;99.53;99000.84;10566304;28;20035;-77
2021/11/27 13:32:48;;;;;;;3.08;1.92;;;;;;;2.86;99.40;99005.53;10583541;28;20038;-73
2021/11/27 13:37:53;;;;;;;5.18;3.17;;;;;;;2.91;99.65;99019.16;10564837;28;20436;-74
2021/11/27 13:43:02;;;;;;;2.90;2.15;;;;;;;2.85;99.08;99017.28;10567875;28;20462;-75
2021/11/27 13:48:08;;;;;;;3.25;2.08;;;;;;;2.72;99.30;99018.00;10569289;28;20052;-74
2021/11/27 13:53:09;;;;;;;2.63;2.38;;;;;;;2.60;99.24;98997.31;10582829;28;20032;-75
2021/11/27 13:58:13;;;;;;;2.03;1.92;;;;;;;2.61;99.10;99017.69;10547316;28;20028;-74
2021/11/27 14:03:18;;;;;;;4.10;2.65;;;;;;;2.53;99.64;99014.13;10565502;28;20078;-75
2021/11/27 14:08:23;;;;;;;2.70;2.33;;;;;;;2.54;99.26;99022.97;10566197;28;20066;-76
2021/11/27 14:13:23;;;;;;;2.08;1.90;;;;;;;2.58;99.17;99018.06;10547403;28;20433;-75
2021/11/27 14:18:30;;;;;;;1.98;1.85;;;;;;;2.54;99.53;99023.78;10564913;28;20088;-73
2021/11/27 14:23:33;;;;;;;2.10;1.95;;;;;;;2.59;99.30;99030.41;10563308;28;20034;-76
2021/11/27 14:28:36;;;;;;;5.10;2.28;;;;;;;2.60;99.04;99038.22;10563549;28;20406;-74
2021/11/27 14:33:36;;;;;;;3.28;2.35;;;;;;;2.59;99.52;99035.75;10547906;28;20120;-75
2021/11/27 14:38:58;;;;;;;3.85;2.53;;;;;;;2.53;99.29;99030.16;10563150;28;20122;-73
2021/11/27 14:44:04;;;;;;;4.63;2.58;;;;;;;2.57;99.11;99043.94;10581550;28;20105;-75
2021/11/27 14:49:37;;;;;;;2.25;2.15;;;;;;;2.55;99.37;99041.50;10584616;28;20044;-75
2021/11/27 14:54:53;;;;;;;3.83;3.08;;;;;;;2.62;99.46;99046.06;10590269;28;20039;-75
2021/11/27 14:59:55;;;;;;;3.72;2.72;;;;;;;2.55;99.31;99044.16;10571273;28;20459;-76
2021/11/27 15:04:55;;;;;;;3.15;2.95;;;;;;;2.53;99.26;99048.84;10554574;28;20063;-77
2021/11/27 15:09:56;;;;;;;4.18;2.97;;;;;;;2.59;99.53;99046.44;10571257;28;20035;-73
2021/11/27 15:14:57;;;;;;;3.08;2.78;;;;;;;2.50;99.49;99049.25;10570260;28;20441;-75
2021/11/27 15:19:57;;;;;;;4.00;3.67;;;;;;;2.52;98.58;99051.72;10589030;28;20034;-74
2021/11/27 15:24:58;;;;;;;4.72;3.30;;;;;;;2.60;99.58;99058.78;10570890;28;20036;-73
2021/11/27 15:29:58;;;;;;;3.65;3.28;;;;;;;2.75;99.21;99070.25;10587689;28;20063;-74
2021/11/27 15:34:59;;;;;;;6.35;3.08;;;;;;;2.74;98.67;99065.88;10589397;28;20032;-74
2021/11/27 15:39:59;;;;;;;6.22;4.28;;;;;;;2.72;98.90;99073.28;10507709;28;20134;-74
2021/11/27 15:45:00;;;;;;;3.63;3.33;;;;;;;2.74;98.66;99077.44;10587880;28;20047;-74
2021/11/27 15:50:00;;;;;;;3.67;3.38;;;;;;;2.67;98.87;99084.53;10570475;28;20455;-74
2021/11/27 15:55:01;;;;;;;3.53;3.22;;;;;;;2.65;98.46;99096.44;10570845;28;20453;-76
2021/11/27 16:00:01;;;;;;;5.70;5.13;;;;;;;2.77;98.56;99103.75;10573439;28;20047;-74
2021/11/27 16:05:03;;;;;;;5.07;4.30;;;;;;;2.84;98.55;99105.66;10591118;28;20108;-76
2021/11/27 16:10:04;;;;;;;6.82;4.40;;;;;;;2.76;97.87;99112.78;10587112;28;20059;-76
2021/11/27 16:15:05;;;;;;;4.35;3.95;;;;;;;2.66;97.26;99114.16;10590038;28;20382;-75
2021/11/27 16:20:07;;;;;;;5.25;4.72;;;;;;;2.63;97.18;99127.88;10589550;28;20106;-74
2021/11/27 16:25:07;;;;;;;11.00;5.75;;;;;;;2.69;97.58;99127.13;10588069;28;20032;-74
2021/11/27 16:30:08;;;;;;;7.03;6.40;;;;;;;2.71;98.38;99115.22;10553614;28;20031;-74
2021/11/27 16:35:09;;;;;;;4.30;3.97;;;;;;;2.69;97.98;99108.41;10568714;28;20032;-75
2021/11/27 16:40:10;;;;;;;7.53;6.88;;;;;;;2.75;98.34;99110.31;10567970;28;20439;-76
2021/11/27 16:45:10;;;;;;;7.72;6.65;;;;;;;2.68;97.94;99101.41;10584707;28;20048;-75
2021/11/27 16:50:11;;;;;;;6.28;5.68;;;;;;;2.56;96.98;99099.25;10585237;28;20124;-74
2021/11/27 16:55:14;;;;;;;7.78;6.93;;;;;;;2.48;96.91;99099.34;10585621;28;20118;-76
2021/11/27 17:00:19;;;;;;;6.88;6.25;;;;;;;2.54;96.56;99119.97;10567400;28;20463;-76
2021/11/27 17:05:19;;;;;;;9.13;8.32;;;;;;;2.55;96.83;99127.00;10551265;28;20028;-75
2021/11/27 17:10:20;;;;;;;8.43;7.63;;;;;;;2.58;97.11;99119.59;10584576;28;20032;-76
2021/11/27 17:15:20;;;;;;;10.15;7.72;;;;;;;2.65;97.95;99134.69;10584786;28;20027;-74
2021/11/27 17:20:21;;;;;;;8.10;7.30;;;;;;;2.75;97.92;99143.22;10566043;28;20115;-74
2021/11/27 17:25:21;;;;;;;9.02;8.25;;;;;;;2.88;98.15;99152.41;10565263;28;20027;-76
2021/11/27 17:30:21;;;;;;;8.98;8.13;;;;;;;2.98;97.92;99156.41;10583812;28;20070;-75
2021/11/27 17:35:22;;;;;;;10.43;8.18;;;;;;;3.01;97.42;99164.03;10583620;28;20036;-75
2021/11/27 17:40:22;;;;;;;13.68;9.23;;;;;;;3.01;98.30;99169.38;10583397;28;20059;-74
2021/11/27 17:45:23;;;;;;;10.45;8.57;;;;;;;3.08;98.09;99173.97;10564097;28;20101;-77
2021/11/27 17:50:23;;;;;;;13.55;12.15;;;;;;;3.15;98.05;99169.50;10584738;28;20047;-74
2021/11/27 17:55:23;;;;;;;11.52;9.85;;;;;;;3.19;97.64;99176.97;10582999;28;20078;-75
2021/11/27 18:00:24;;;;;;;19.65;17.75;;;;;;;3.26;98.01;99177.03;10582935;28;20042;-75
2021/11/27 18:05:24;;;;;;;19.38;17.45;;;;;;;3.29;97.76;99183.81;10564340;28;20062;-75
2021/11/27 18:10:25;;;;;;;9.63;8.73;;;;;;;3.21;97.83;99185.59;10581976;28;20035;-75
2021/11/27 18:15:25;;;;;;;9.38;8.45;;;;;;;3.24;97.96;99201.28;10583492;28;20031;-76
2021/11/27 18:20:27;;;;;;;10.63;9.40;;;;;;;3.32;97.80;99208.34;10588947;28;20085;-75
2021/11/27 18:25:35;;;;;;;10.23;8.82;;;;;;;3.29;98.18;99219.44;10582255;28;20043;-77
2021/11/27 18:30:35;;;;;;;18.40;11.55;;;;;;;3.29;98.13;99222.13;10581957;28;20038;-75
2021/11/27 18:35:36;;;;;;;17.52;10.93;;;;;;;3.37;97.97;99221.97;10565012;28;20086;-76
2021/11/27 18:40:36;;;;;;;12.35;10.52;;;;;;;3.39;97.97;99216.44;10582252;28;20088;-75
2021/11/27 18:45:37;;;;;;;17.33;13.00;;;;;;;3.45;98.05;99221.84;10581931;28;20051;-75
2021/11/27 18:50:37;;;;;;;15.02;13.30;;;;;;;3.50;98.25;99227.44;10563817;28;20027;-77
2021/11/27 18:55:37;;;;;;;18.50;14.18;;;;;;;3.55;97.65;99239.44;10563406;28;20036;-75
2021/11/27 19:00:38;;;;;;;22.98;17.60;;;;;;;3.53;98.04;99228.06;10563240;28;20122;-74
2021/11/27 19:05:38;;;;;;;21.90;17.75;;;;;;;3.56;98.10;99233.88;10581967;28;20062;-75
2021/11/27 19:10:39;;;;;;;19.73;17.65;;;;;;;3.57;98.29;99240.03;10564550;28;20429;-76
2021/11/27 19:15:39;;;;;;;22.70;19.02;;;;;;;3.65;98.08;99245.28;10582064;28;20066;-76
2021/11/27 19:20:40;;;;;;;18.80;16.85;;;;;;;3.67;97.90;99251.25;10568867;28;20036;-75
2021/11/27 19:25:40;;;;;;;20.52;16.33;;;;;;;3.68;97.84;99256.41;10582677;28;20073;-76
2021/11/27 19:30:42;;;;;;;23.30;19.10;;;;;;;3.69;97.54;99254.56;10580081;28;20110;-77
2021/11/27 19:35:42;;;;;;;20.70;17.95;;;;;;;3.68;97.63;99261.78;10581988;28;20044;-76
2021/11/27 19:40:42;;;;;;;22.65;19.08;;;;;;;3.69;97.49;99263.41;10588254;28;20459;-78
2021/11/27 19:45:43;;;;;;;25.10;20.10;;;;;;;3.67;97.60;99270.84;10588265;28;20136;-75
2021/11/27 19:50:44;;;;;;;26.60;20.25;;;;;;;3.64;97.04;99273.06;10552908;28;20470;-76
2021/11/27 19:55:44;;;;;;;30.40;23.40;;;;;;;3.63;97.28;99272.22;10587719;28;20031;-75
2021/11/27 20:00:46;;;;;;;37.40;22.48;;;;;;;3.66;96.81;99273.69;10571024;28;20104;-74
2021/11/27 20:05:46;;;;;;;25.95;20.80;;;;;;;3.62;96.89;99273.25;10569598;28;20063;-76
2021/11/27 20:10:48;;;;;;;34.70;21.48;;;;;;;3.62;96.29;99288.50;10586675;28;20131;-75
2021/11/27 20:15:50;;;;;;;28.77;20.83;;;;;;;3.54;96.08;99291.28;10587706;28;20032;-77
2021/11/27 20:20:51;;;;;;;27.20;20.65;;;;;;;3.54;96.51;99302.00;10586777;28;20097;-76
2021/11/27 20:25:51;;;;;;;28.70;22.40;;;;;;;3.55;96.38;99306.34;10587369;28;20046;-75
2021/11/27 20:30:51;;;;;;;28.98;23.30;;;;;;;3.61;96.67;99306.41;10571855;28;20035;-76
2021/11/27 20:35:52;;;;;;;28.45;24.10;;;;;;;3.63;96.88;99315.06;10589005;28;20149;-75
2021/11/27 20:40:52;;;;;;;31.25;23.40;;;;;;;3.68;97.07;99317.16;10586323;28;20440;-76
2021/11/27 20:45:53;;;;;;;34.65;25.35;;;;;;;3.73;97.30;99320.09;10566528;28;20558;-76
2021/11/27 20:50:56;;;;;;;34.53;25.63;;;;;;;3.77;97.47;99324.06;10568296;28;20139;-77
2021/11/27 20:55:57;;;;;;;30.35;25.20;;;;;;;3.77;97.55;99316.03;10568943;28;20445;-77
2021/11/27 21:00:57;;;;;;;36.00;24.48;;;;;;;3.77;97.55;99334.75;10550278;28;20027;-75
2021/11/27 21:05:58;;;;;;;39.80;24.05;;;;;;;3.83;97.48;99350.06;10585002;28;20031;-76
2021/11/27 21:10:58;;;;;;;33.97;24.67;;;;;;;3.93;97.70;99355.09;10586408;28;20032;-76
2021/11/27 21:15:59;;;;;;;33.25;25.17;;;;;;;3.94;97.82;99343.34;10549469;28;20032;-77
2021/11/27 21:20:59;;;;;;;36.50;26.83;;;;;;;3.84;98.27;99345.53;10567034;28;20032;-75
2021/11/27 21:26:00;;;;;;;26.85;23.10;;;;;;;3.75;96.47;99354.72;10585377;28;20447;-75
2021/11/27 21:31:00;;;;;;;34.38;24.90;;;;;;;3.57;95.04;99361.31;10565943;28;20474;-76
2021/11/27 21:36:00;;;;;;;36.92;24.15;;;;;;;3.64;96.13;99369.44;10565817;28;20036;-75
2021/11/27 21:41:01;;;;;;;40.75;26.58;;;;;;;3.73;96.97;99370.94;10564702;28;20149;-76
2021/11/27 21:46:01;;;;;;;32.85;27.58;;;;;;;3.83;97.09;99381.34;10548197;28;20055;-76
2021/11/27 21:51:02;;;;;;;39.55;28.05;;;;;;;3.73;95.98;99376.31;10583428;28;20466;-76
2021/11/27 21:56:03;;;;;;;31.88;24.98;;;;;;;3.46;93.97;99386.72;10582569;28;20463;-75
2021/11/27 22:01:03;;;;;;;30.88;25.15;;;;;;;3.22;93.49;99390.59;10582285;28;20042;-76
2021/11/27 22:06:04;;;;;;;42.90;25.42;;;;;;;2.98;92.60;99390.88;10564734;28;20043;-75
2021/11/27 22:11:04;;;;;;;42.70;26.83;;;;;;;2.86;91.88;99400.38;10582481;28;20019;-74
2021/11/27 22:16:05;;;;;;;44.65;28.75;;;;;;;2.70;92.13;99402.22;10564175;28;20035;-77
2021/11/27 22:21:05;;;;;;;34.67;26.27;;;;;;;2.54;91.77;99397.88;10581767;28;20081;-76
2021/11/27 22:26:05;;;;;;;35.20;28.52;;;;;;;2.51;91.71;99411.59;10582215;28;20062;-74
2021/11/27 22:31:06;;;;;;;36.88;28.42;;;;;;;2.35;91.62;99430.44;10563798;28;20390;-75
2021/11/27 22:36:07;;;;;;;36.10;29.38;;;;;;;2.29;91.69;99439.16;10581925;28;20470;-74
2021/11/27 22:41:10;;;;;;;50.22;33.38;;;;;;;2.44;94.03;99447.25;10547230;28;20031;-74
2021/11/27 22:46:10;;;;;;;38.25;31.88;;;;;;;2.60;94.92;99454.28;10583963;28;20080;-75
2021/11/27 22:51:11;;;;;;;42.15;31.20;;;;;;;2.65;95.28;99465.22;10570689;28;20062;-76
2021/11/27 22:56:11;;;;;;;41.63;31.65;;;;;;;2.79;96.34;99469.78;10569826;28;20027;-76
2021/11/27 23:01:13;;;;;;;52.25;33.22;;;;;;;2.91;96.28;99467.50;10562571;28;20471;-77
2021/11/27 23:06:14;;;;;;;48.05;34.10;;;;;;;2.99;96.83;99476.25;10564757;28;20042;-75
2021/11/27 23:11:17;;;;;;;52.08;37.60;;;;;;;3.13;97.65;99477.28;10553694;28;20037;-75
2021/11/27 23:16:18;;;;;;;58.58;38.53;;;;;;;3.22;97.95;99491.38;10590570;28;20487;-77
2021/11/27 23:21:20;;;;;;;47.30;35.70;;;;;;;3.30;97.65;99501.19;10588876;28;20059;-75
2021/11/27 23:26:25;;;;;;;58.03;39.20;;;;;;;3.28;98.08;99487.97;10570303;28;20059;-75